INFORMACIÓN METAR y TAF
METAR FOR GCXO
ADDS - METARS form results

(1001 UTC 03 December 2021)
Data provider http://aviationweather.gov/metar/data/
 
METAR text: GCXO 030930Z 01006KT 310V050 5000 DZ FEW004 BKN011 14/13 Q1024 NOSIG
Conditions at: GCXO (TENERIFE/LOS ROD, ES) observed 0930 UTC 03 December 2021
Temperature: 14.0°C (57°F)
Dewpoint: 13.0°C (55°F) [RH = 94%]
Pressure (altimeter): 30.24 inches Hg (1024.0 mb)
Winds: from the N (10 degrees) at 7 MPH (6 knots; 3.1 m/s)
Visibility: 3 miles ( 5 km)
Ceiling: 1100 feet AGL
Clouds: few clouds at 400 feet AGL
broken clouds at 1100 feet AGL
Weather: DZ  (moderate drizzle)

METAR text: GCXO 030908Z 34007KT 300V020 5000 DZ FEW003 BKN010 14/13 Q1024 NOSIG
Conditions at: GCXO (TENERIFE/LOS ROD, ES) observed 0908 UTC 03 December 2021
Temperature: 14.0°C (57°F)
Dewpoint: 13.0°C (55°F) [RH = 94%]
Pressure (altimeter): 30.24 inches Hg (1024.0 mb)
Winds: from the NNW (340 degrees) at 8 MPH (7 knots; 3.6 m/s)
Visibility: 3 miles ( 5 km)
Ceiling: 1000 feet AGL
Clouds: few clouds at 300 feet AGL
broken clouds at 1000 feet AGL
Weather: DZ  (moderate drizzle)

Forecast for: AMD
Text: TAF AMD GCXO 030835Z 0309/0409 02007KT 9999 SCT020 TX17/0312Z TN12/0406Z
Forecast period: 0900 UTC 03 December 2021 to 0100 UTC 04 December 2021
Forecast type: FROM: standard forecast or significant change
Winds: from the NNE (20 degrees) at 8 MPH (7 knots; 3.6 m/s)
Visibility: 6 or more miles (10+ km)
Ceiling: at least 12,000 feet AGL
Clouds: scattered clouds at 2000 feet AGL
Weather: no significant weather forecast for this period
Text: BECMG 0401/0403 13015KT
Forecast period: 0100 to 0900 UTC 04 December 2021
Forecast type: BECOMING: Conditions expected to become as follows by 0300 UTC 04 December 2021
Winds: from the SE (130 degrees) at 17 MPH (15 knots; 7.7 m/s)
Visibility: 6 or more miles (10+ km)
Ceiling: at least 12,000 feet AGL
Clouds: scattered clouds at 2000 feet AGL
Weather: no significant weather forecast for this period
Text: TEMPO 0309/0312 DZ BKN010
Forecast period: 0900 to 1200 UTC 03 December 2021
Forecast type: TEMPORARY: The following changes expected for less than half the time period
Visibility: missing
Ceiling: 1000 feet AGL
Clouds: broken clouds at 1000 feet AGL
Weather: DZ  (moderate drizzle)

 MAPA DE AEROPUERTO

 INFORMACIÓN DE PISTA
Pista 12 Longitud 11155 ft Ancho 148 ft
Elevación 2060 ft Umbral desplazado 0 ft Rumbo de pista 111
Pista 30 Longitud 11155 ft Ancho 148 ft
Elevación 2002 ft Umbral desplazado 0 ft Rumbo de pista 291

 FRECUANCIAS DEL AEROPUERTO
Tipo APP Nombre APP Frecuencia 119.7 MHZ
Tipo ATIS Nombre ATIS Frecuencia 118.575 MHZ
Tipo GND Nombre GND Frecuencia 121.7 MHZ
Tipo TWR Nombre TWR Frecuencia 118.7 MHZ

 RADIO AYUDAS DEL AEROPUERTO
Tipo VOR-DME Nombre Tenerife Norte Frecuencia 117700 KHZ
Tipo NDB Nombre Tenerife Norte Frecuencia 410 KHZ



Powered by Virtual Airlines Manager [v2.6.2]